Αναφορές METAR από Ελληνικά Αεροδρόμια

Σε αυτή τη σελίδα, μπορείτε να παρακολουθείτε τις αναφορές METAR που προέρχονται από τα κυριότερα αεροδρόμια της Ελλάδας. Το περιεχόμενο αποκωδικοποιείται, οπτικοποιείται και γίνεται κατανοητό από τον καθένα με τη χρήση του όμορφου δίγλωσσου γραφικού περιβάλλοντος του meteothes.gr!

Η αρχική κωδικοποιημένη αναφορά, συμπεριλαμβάνεται επίσης στο κάτω μέρος. Σε όποια καθεστερεί η ενημέρωση, το προειδοποιητικό μήνυμα "Μη ενημερωμένο METAR!" εμφανίζεται στο πάνω μέρος της με κόκκινα γράμματα.

Εχουν προστεθεί επίσης δύο αεροδρόμια από γειτονικές χώρες, την Οχρίδα(ΠΓΔΜ) και την Σόφια(Βουλγαρία) για να ελέγχουμε την εξέλιξη των ψυχρών εισβολών από τα Βόρεια!

LGTS - Thessaloniki/Makedonia-Elev 7m
Απόσταση από meteothes.gr: Ν 13km
Ενημερώθηκε: 16/10/2018 21:20
Διάσπαρτα Nέφη
Διάσπαρτα Nέφη
 Ανεμος από μεταβλητός
Ανεμος: μεταβλητός 6 km/h
Θερμοκρασία: 17°C
Σημ. Δρόσου: 11°C
Υγρασία: 68%
Βαρόμετρο: 1021 hPa
Νέφωση: Διάσπαρτα Nέφη
Ορατότητα: 10 km
Λεπτομέρειες Νεφών: Διάσπαρτα Nέφη 762 m
2018/10/16 18:20 LGTS 161820Z VRB03KT 9999 FEW025 17/11 Q1021 NOSIG
LGAV - Athens/Elef. Venizelos-Elev 94m
Απόσταση από meteothes.gr: ΝΝΑ 312km
Ενημερώθηκε: 16/10/2018 21:20
Διάσπαρτα Nέφη
Διάσπαρτα Nέφη
 Ανεμος από Β
Ανεμος: Β 13 km/h
Θερμοκρασία: 18°C
Σημ. Δρόσου: 9°C
Υγρασία: 56%
Βαρόμετρο: 1020 hPa
Νέφωση: Διάσπαρτα Nέφη
Ορατότητα: 10 km
Λεπτομέρειες Νεφών: Διάσπαρτα Nέφη 914 m
2018/10/16 18:20 LGAV 161820Z 01007KT 9999 FEW030 18/09 Q1020 NOSIG
 
LGAL - Alexandroupolis-Elev 3m
Απόσταση από meteothes.gr: Α 251km
Ενημερώθηκε: 16/10/2018 21:20
Αίθριος
Αίθριος
 Ανεμος από ΒΑ
Ανεμος: ΒΑ 19 km/h
Θερμοκρασία: 16°C
Σημ. Δρόσου: 10°C
Υγρασία: 68%
Βαρόμετρο: 1021 hPa
Συνθήκες: Αίθριος
Ορατότητα: πάνω από 10 km
2018/10/16 18:20 LGAL 161820Z 04010KT CAVOK 16/10 Q1021
LGKV - Kavala/Crysoupolis-Elev 5m
Απόσταση από meteothes.gr: ΑΒΑ 144km
Ενημερώθηκε: 16/10/2018 21:20
Αίθριος
Αίθριος
 Ανεμος από άπνοια
Ανεμος: άπνοια
Θερμοκρασία: 16°C
Σημ. Δρόσου: 13°C
Υγρασία: 83%
Βαρόμετρο: 1021 hPa
Συνθήκες: Αίθριος
Ορατότητα: πάνω από 10 km
2018/10/16 18:20 LGKV 161820Z 00000KT CAVOK 16/13 Q1021
 
LGSK - Skiathos Island-Elev 15m
Απόσταση από meteothes.gr: ΝΝΑ 168km
Ενημερώθηκε: 16/10/2018 20:50
Διάσπαρτα Nέφη
Διάσπαρτα Nέφη
 Ανεμος από άπνοια
Ανεμος: άπνοια
Θερμοκρασία: 16°C
Σημ. Δρόσου: 14°C
Υγρασία: 88%
Βαρόμετρο: 1020 hPa
Νέφωση: Διάσπαρτα Nέφη
Ορατότητα: 10 km
Λεπτομέρειες Νεφών: Διάσπαρτα Nέφη 610 m
2018/10/16 17:50 LGSK 161750Z 00000KT 9999 FEW020 16/14 Q1020
LGLM - Limnos Island-Elev 5m
Απόσταση από meteothes.gr: ΑΝΑ 210km
Ενημερώθηκε: 16/10/2018 21:20
Αίθριος
Αίθριος
 Ανεμος από ΒΒΔ
Ανεμος: ΒΒΔ 11 km/h
Θερμοκρασία: 17°C
Σημ. Δρόσου: 13°C
Υγρασία: 77%
Βαρόμετρο: 1020 hPa
Συνθήκες: Αίθριος
Ορατότητα: πάνω από 10 km
2018/10/16 18:20 LGLM 161820Z 33006KT CAVOK 17/13 Q1020
 
LGMT - Mitilini Island-Elev 17m
Απόσταση από meteothes.gr: ΑΝΑ 358km
Ενημερώθηκε: 16/10/2018 21:20
Αίθριος
Αίθριος
 Ανεμος από ΔΒΔ
Ανεμος: ΔΒΔ 13 km/h
Θερμοκρασία: 19°C
Σημ. Δρόσου: 15°C
Υγρασία: 78%
Βαρόμετρο: 1018 hPa
Συνθήκες: Αίθριος
Ορατότητα: πάνω από 10 km
2018/10/16 18:20 LGMT 161820Z 30007KT CAVOK 19/15 Q1018
LGSY - Skiros Island-Elev 15m
Απόσταση από meteothes.gr: ΝΑ 227km
Ενημερώθηκε: 16/10/2018 20:50
Αίθριος
Αίθριος
 Ανεμος από ΒΒΔ
Ανεμος: ΒΒΔ 19 km/h
Θερμοκρασία: 18°C
Σημ. Δρόσου: 13°C
Υγρασία: 73%
Βαρόμετρο: 1020 hPa
Συνθήκες: Αίθριος
Ορατότητα: πάνω από 10 km
2018/10/16 17:50 LGSY 161750Z 34010KT CAVOK 18/13 Q1020 BLU
 
LGKZ - Kozani-Elev 628m
Απόσταση από meteothes.gr: ΔΝΔ 102km
Ενημερώθηκε: 16/10/2018 14:50
ΜΗ Ενημερωμένο METAR!
Διάσπαρτα Nέφη
Διάσπαρτα Nέφη
 Ανεμος από άπνοια
Ανεμος: άπνοια
Θερμοκρασία: 22°C
Σημ. Δρόσου: 7°C
Υγρασία: 38%
Βαρόμετρο: 1023 hPa
Νέφωση: Διάσπαρτα Nέφη
Ορατότητα: 10 km
Λεπτομέρειες Νεφών: Διάσπαρτα Nέφη 762 m
2018/10/16 11:50 LGKZ 161150Z 00000KT 9999 FEW025 22/07 Q1023
LGIO - Ioannina-Elev 476m
Απόσταση από meteothes.gr: ΔΝΔ 209km
Ενημερώθηκε: 16/10/2018 21:20
Διάσπαρτα Nέφη
Διάσπαρτα Nέφη
 Ανεμος από μεταβλητός
Ανεμος: μεταβλητός 0 km/h
Θερμοκρασία: 15°C
Σημ. Δρόσου: 13°C
Υγρασία: 88%
Βαρόμετρο: 1021 hPa
Νέφωση: Διάσπαρτα Nέφη
Ορατότητα: 10 km
Λεπτομέρειες Νεφών: Διάσπαρτα Nέφη 762 m
2018/10/16 18:20 LGIO 161820Z /////KT 9999 FEW025 15/13 Q1021
 
LGZA - Zakinthos-Elev 3m
Απόσταση από meteothes.gr: ΝΝΔ 367km
Ενημερώθηκε: 16/10/2018 20:50
Μερικώς νεφελώδης
Μερικώς νεφελώδης
 Ανεμος από άπνοια
Ανεμος: άπνοια
Θερμοκρασία: 20°C
Σημ. Δρόσου: 17°C
Υγρασία: 83%
Βαρόμετρο: 1019 hPa
Νέφωση: Μερικώς νεφελώδης
Ορατότητα: 10 km
Λεπτομέρειες Νεφών: Διάσπαρτα Nέφη 610 m
Μερικώς νεφελώδης 2134 m
2018/10/16 17:50 LGZA 161750Z 00000KT 9999 FEW020 SCT070 20/17 Q1019
LGKR - Corfu Island-Elev 2m
Απόσταση από meteothes.gr: ΔΝΔ 282km
Ενημερώθηκε: 16/10/2018 21:20
Διάσπαρτα Nέφη
Διάσπαρτα Nέφη
 Ανεμος από άπνοια
Ανεμος: άπνοια
Θερμοκρασία: 19°C
Σημ. Δρόσου: 16°C
Υγρασία: 83%
Βαρόμετρο: 1019 hPa
Νέφωση: Διάσπαρτα Nέφη
Ορατότητα: 10 km
Λεπτομέρειες Νεφών: Διάσπαρτα Nέφη 762 m
2018/10/16 18:20 LGKR 161820Z 00000KT 9999 FEW025 19/16 Q1019 NOSIG
 
LGSO - Syros Island-Elev 72m
Απόσταση από meteothes.gr: ΝΝΑ 397km
Ενημερώθηκε: 16/10/2018 21:20

 Ανεμος από Β
Ανεμος: Β 26 km/h
Θερμοκρασία: 18°C
Σημ. Δρόσου: 14°C
Υγρασία: 78%
Βαρόμετρο: 1019 hPa
2018/10/16 18:20 LGSO 161820Z AUTO 01014KT //// // ////// 18/14 Q1019 RE//
LGMK - Mikonos Island-Elev 123m
Απόσταση από meteothes.gr: ΝΝΑ 412km
Ενημερώθηκε: 16/10/2018 20:50
Μερικώς νεφελώδης
Μερικώς νεφελώδης
 Ανεμος από Β
Ανεμος: Β 33 km/h
Θερμοκρασία: 18°C
Σημ. Δρόσου: 16°C
Υγρασία: 88%
Βαρόμετρο: 1018 hPa
Νέφωση: Μερικώς νεφελώδης
Ορατότητα: 9 km
Λεπτομέρειες Νεφών: Μερικώς νεφελώδης 305 m
2018/10/16 17:50 LGMK 161750Z 35018KT 9000 SCT010 18/16 Q1018
 
LGSR - Santorini Island-Elev 40m
Απόσταση από meteothes.gr: ΝΝΑ 520km
Ενημερώθηκε: 16/10/2018 21:20
Διάσπαρτα Nέφη
Διάσπαρτα Nέφη
 Ανεμος από Β
Ανεμος: Β 28 km/h
Θερμοκρασία: 18°C
Σημ. Δρόσου: 14°C
Υγρασία: 78%
Βαρόμετρο: 1018 hPa
Νέφωση: Διάσπαρτα Nέφη
Ορατότητα: 10 km
Λεπτομέρειες Νεφών: Διάσπαρτα Nέφη 610 m
2018/10/16 18:20 LGSR 161820Z 35015KT 9999 FEW020 18/14 Q1018
LGKL - Kalamata-Elev 8m
Απόσταση από meteothes.gr: Ν 405km
Ενημερώθηκε: 16/10/2018 21:20
Μερικώς νεφελώδης
Μερικώς νεφελώδης
 Ανεμος από άπνοια
Ανεμος: άπνοια
Θερμοκρασία: 18°C
Σημ. Δρόσου: 13°C
Υγρασία: 73%
Βαρόμετρο: 1019 hPa
Νέφωση: Μερικώς νεφελώδης
Ορατότητα: 10 km
Λεπτομέρειες Νεφών: Μερικώς νεφελώδης 914 m
2018/10/16 18:20 LGKL 161820Z 00000KT 9999 SCT030 18/13 Q1019
 
LGIR - Iraklion/Crete-Elev 5m
Απόσταση από meteothes.gr: ΝΝΑ 622km
Ενημερώθηκε: 16/10/2018 21:20
Διάσπαρτα Nέφη
Διάσπαρτα Nέφη
 Ανεμος από ΒΔ
Ανεμος: ΒΔ 15 km/h
Θερμοκρασία: 21°C
Σημ. Δρόσου: 17°C
Υγρασία: 78%
Βαρόμετρο: 1018 hPa
Νέφωση: Διάσπαρτα Nέφη
Ορατότητα: 10 km
Λεπτομέρειες Νεφών: Διάσπαρτα Nέφη 610 m
2018/10/16 18:20 LGIR 161820Z 31008KT 9999 FEW020 21/17 Q1018 NOSIG
LGRP - Rhodes-Elev 5m
Απόσταση από meteothes.gr: ΝΑ 649km
Ενημερώθηκε: 16/10/2018 21:20
Αίθριος
Αίθριος
 Ανεμος από ΔΝΔ
Ανεμος: ΔΝΔ 19 km/h
Θερμοκρασία: 23°C
Σημ. Δρόσου: 18°C
Υγρασία: 74%
Βαρόμετρο: 1015 hPa
Συνθήκες: Αίθριος
Ορατότητα: πάνω από 10 km
2018/10/16 18:20 LGRP 161820Z 24010KT CAVOK 23/18 Q1015 NOSIG
 
LWOH - Ohrid/FYROM-Elev 761m
Απόσταση από meteothes.gr: ΔΒΔ 188km
Ενημερώθηκε: 16/10/2018 17:00
ΜΗ Ενημερωμένο METAR!
Διάσπαρτα Nέφη
Διάσπαρτα Nέφη
 Ανεμος από ΝΑ
Ανεμος: ΝΑ 7 km/h
Θερμοκρασία: 21°C
Σημ. Δρόσου: 7°C
Υγρασία: 40%
Βαρόμετρο: 1021 hPa
Νέφωση: Διάσπαρτα Nέφη
Ορατότητα: 10 km
Λεπτομέρειες Νεφών: Διάσπαρτα Nέφη 1067 m
2018/10/16 14:00 LWOH 161400Z 14004KT 9999 FEW035 21/07 Q1021
LBSF - Sofia/Bulgaria-Elev 595m
Απόσταση από meteothes.gr: Β 227km
Ενημερώθηκε: 16/10/2018 21:30
Αίθριος
Αίθριος
 Ανεμος από Α
Ανεμος: Α 6 km/h
Θερμοκρασία: 13°C
Σημ. Δρόσου: 5°C
Υγρασία: 59%
Βαρόμετρο: 1024 hPa
Συνθήκες: Αίθριος
Ορατότητα: πάνω από 10 km
2018/10/16 18:30 LBSF 161830Z 10003KT 050V210 CAVOK 13/05 Q1024 NOSIG

(*) Μερικές αναφορές παρουσιάζουν λιγότερα στοιχεία γιατί οι αρχικές είναι ελλιπείς ή έχουν λάθος μορφοποίηση!